Terminal Aerodrome Forecast
Issued by NWS

Home | Current Version | Previous Version | Text Only | Print | Product List | Glossary On
Versions: 1 2 3 4 5 6 7 8 9 10 11 12 13 14 15 16 17 18 19
000
FTUS46 KPDT 280500
TAFDLS
TAF
KDLS 280530Z 2806/0106 32014KT P6SM BKN090
      TEMPO 2806/2809 -SHRA
     FM281600 33012KT P6SM SCT080
     FM010000 32006KT P6SM SKC=

USA.gov is the U.S. government's official web portal to all federal, state and local government web resources and services.